createdAt,value
2023-04-10T00:01:26.949Z,11.93
2023-04-10T00:03:54.060Z,12.00
2023-04-10T00:06:23.232Z,11.52
2023-04-10T00:08:49.944Z,11.40
2023-04-10T00:11:18.811Z,11.85
2023-04-10T00:13:48.199Z,12.93
2023-04-10T00:16:17.070Z,12.80
2023-04-10T00:18:43.704Z,11.60
2023-04-10T00:21:10.290Z,11.35
2023-04-10T00:23:42.063Z,10.90
2023-04-10T00:26:13.400Z,11.52
2023-04-10T00:28:41.452Z,11.65
2023-04-10T00:31:10.500Z,10.95
2023-04-10T00:33:41.831Z,11.20
2023-04-10T00:36:11.472Z,11.10
2023-04-10T00:38:40.496Z,10.35
2023-04-10T00:41:07.277Z,11.32
2023-04-10T00:43:36.146Z,10.38
2023-04-10T00:46:02.901Z,10.55
2023-04-10T00:48:29.533Z,10.32
2023-04-10T00:50:58.428Z,11.07
2023-04-10T00:53:29.798Z,10.50
2023-04-10T00:55:59.561Z,10.20
2023-04-10T00:58:28.905Z,9.82
2023-04-10T01:00:56.373Z,10.43
2023-04-10T01:03:23.383Z,9.63
2023-04-10T01:06:14.892Z,9.82
2023-04-10T01:08:50.463Z,10.93
2023-04-10T01:11:35.569Z,9.73
2023-04-10T01:14:27.920Z,10.07
2023-04-10T01:17:04.308Z,10.20
2023-04-10T01:20:02.610Z,10.05
2023-04-10T01:22:35.898Z,9.88
2023-04-10T01:25:14.649Z,10.35
2023-04-10T01:28:05.410Z,9.70
2023-04-10T01:30:34.801Z,9.93
2023-04-10T01:33:03.739Z,9.73
2023-04-10T01:35:35.567Z,10.20
2023-04-10T01:38:05.664Z,9.23
2023-04-10T01:40:35.019Z,9.65
2023-04-10T01:43:04.274Z,8.75
2023-04-10T01:45:32.507Z,8.93
2023-04-10T01:48:01.411Z,9.73
2023-04-10T01:50:30.612Z,8.82
2023-04-10T01:52:57.278Z,8.98
2023-04-10T01:55:24.008Z,8.77
2023-04-10T01:57:53.476Z,8.75
2023-04-10T02:00:23.182Z,8.57
2023-04-10T02:02:51.017Z,8.18
2023-04-10T02:05:23.152Z,9.38
2023-04-10T02:08:02.322Z,8.85
2023-04-10T02:10:34.266Z,8.77
2023-04-10T02:13:06.112Z,8.90
2023-04-10T02:15:34.933Z,8.35
2023-04-10T02:18:07.678Z,8.55
2023-04-10T02:20:36.444Z,9.05
2023-04-10T02:23:05.295Z,8.90
2023-04-10T02:25:34.716Z,8.30
2023-04-10T02:28:10.198Z,8.75
2023-04-10T02:30:39.423Z,8.40
2023-04-10T02:33:06.251Z,8.68
2023-04-10T02:35:36.156Z,7.70
2023-04-10T02:38:05.084Z,7.97
2023-04-10T02:40:37.507Z,8.25
2023-04-10T02:43:06.348Z,8.18
2023-04-10T02:45:35.099Z,8.45
2023-04-10T02:48:04.092Z,7.65
2023-04-10T02:50:32.307Z,7.93
2023-04-10T02:53:01.166Z,7.35
2023-04-10T02:55:30.589Z,8.20
2023-04-10T02:57:59.518Z,6.93
2023-04-10T03:00:29.282Z,7.90
2023-04-10T03:02:58.377Z,7.85
2023-04-10T03:05:25.245Z,7.68
2023-04-10T03:07:54.019Z,7.93
2023-04-10T03:10:20.803Z,7.57
2023-04-10T03:12:48.857Z,7.57
2023-04-10T03:15:16.237Z,7.50
2023-04-10T03:17:45.216Z,7.70
2023-04-10T03:20:12.377Z,7.03
2023-04-10T03:22:39.740Z,6.80
2023-04-10T03:25:09.132Z,7.32
2023-04-10T03:27:35.855Z,7.28
2023-04-10T03:30:03.039Z,7.72
2023-04-10T03:32:31.298Z,7.43
2023-04-10T03:35:00.535Z,7.40
2023-04-10T03:37:29.414Z,7.10
2023-04-10T03:39:59.235Z,7.95
2023-04-10T03:42:28.112Z,7.25
2023-04-10T03:44:59.685Z,7.20
2023-04-10T03:47:29.107Z,7.28
2023-04-10T03:49:55.950Z,6.63
2023-04-10T03:52:22.681Z,6.68
2023-04-10T03:54:52.293Z,6.72
2023-04-10T03:57:21.194Z,6.72
2023-04-10T03:59:50.377Z,6.63
2023-04-10T04:02:21.852Z,6.50
2023-04-10T04:04:49.608Z,7.40
2023-04-10T04:07:18.962Z,6.32
2023-04-10T04:09:47.975Z,7.13
2023-04-10T04:12:16.775Z,6.65
2023-04-10T04:14:44.817Z,6.28
2023-04-10T04:17:14.137Z,7.10
2023-04-10T04:19:45.534Z,7.15
2023-04-10T04:22:17.237Z,6.63
2023-04-10T04:24:46.082Z,7.15
2023-04-10T04:27:12.796Z,6.55
2023-04-10T04:29:39.443Z,6.60
2023-04-10T04:32:09.819Z,6.13
2023-04-10T04:34:38.809Z,6.20
2023-04-10T04:37:10.222Z,7.20
2023-04-10T04:39:41.618Z,6.63
2023-04-10T04:42:08.301Z,6.35
2023-04-10T04:44:38.205Z,6.28
2023-04-10T04:47:04.956Z,6.38
2023-04-10T04:49:31.665Z,6.72
2023-04-10T04:51:58.342Z,5.82
2023-04-10T04:54:27.136Z,6.80
2023-04-10T04:56:55.950Z,6.18
2023-04-10T04:59:25.042Z,5.65
2023-04-10T05:01:51.980Z,6.00
2023-04-10T05:04:21.082Z,5.95
2023-04-10T05:06:53.413Z,6.10
2023-04-10T05:09:20.600Z,6.95
2023-04-10T05:11:51.929Z,6.03
2023-04-10T05:14:22.851Z,6.30
2023-04-10T05:16:51.697Z,6.25
2023-04-10T05:19:21.091Z,6.28
2023-04-10T05:21:47.766Z,6.40
2023-04-10T05:24:16.560Z,6.35
2023-04-10T05:26:45.350Z,5.80
2023-04-10T05:29:17.316Z,5.95
2023-04-10T05:31:43.962Z,6.03
2023-04-10T05:34:13.436Z,6.45
2023-04-10T05:36:45.374Z,6.45
2023-04-10T05:39:12.202Z,5.97
2023-04-10T05:41:39.207Z,5.85
2023-04-10T05:44:08.001Z,5.63
2023-04-10T05:46:37.480Z,6.15
2023-04-10T05:49:08.904Z,5.93
2023-04-10T05:51:36.927Z,5.80
2023-04-10T05:54:05.904Z,5.65
2023-04-10T05:56:34.767Z,5.75
2023-04-10T05:59:06.659Z,5.40
2023-04-10T06:01:33.367Z,6.28
2023-04-10T06:04:00.724Z,5.50
2023-04-10T06:06:29.759Z,5.65
2023-04-10T06:08:57.111Z,5.75
2023-04-10T06:11:29.158Z,13.45
2023-04-10T06:14:14.405Z,8.18
2023-04-10T06:16:43.216Z,10.40
2023-04-10T06:19:15.007Z,11.60
2023-04-10T06:21:44.695Z,11.82
2023-04-10T06:24:14.348Z,11.95
2023-04-10T06:26:43.171Z,13.80
2023-04-10T06:29:14.943Z,12.40
2023-04-10T06:31:44.342Z,11.00
2023-04-10T06:34:11.180Z,10.57
2023-04-10T06:36:42.599Z,9.05
2023-04-10T06:39:11.611Z,9.07
2023-04-10T06:41:38.308Z,8.20
2023-04-10T06:44:04.968Z,8.27
2023-04-10T06:46:31.659Z,7.90
2023-04-10T06:49:03.017Z,8.00
2023-04-10T06:54:00.857Z,9.25
2023-04-10T06:56:27.536Z,8.82
2023-04-10T06:59:02.557Z,7.93
2023-04-10T07:01:34.086Z,7.75
2023-04-10T07:04:01.285Z,9.13
2023-04-10T07:06:30.503Z,8.10
2023-04-10T07:08:59.385Z,7.40
2023-04-10T07:11:28.206Z,7.78
2023-04-10T07:13:58.533Z,8.75
2023-04-10T07:16:30.231Z,6.70
2023-04-10T07:18:57.293Z,12.70
2023-04-10T07:21:24.175Z,7.03
2023-04-10T07:23:50.913Z,7.70
2023-04-10T07:26:17.656Z,11.60
2023-04-10T07:28:49.008Z,9.48
2023-04-10T07:31:18.153Z,10.40
2023-04-10T07:33:50.632Z,8.48
2023-04-10T07:36:20.025Z,8.52
2023-04-10T07:38:49.099Z,9.88
2023-04-10T07:41:20.620Z,6.95
2023-04-10T07:43:47.884Z,7.80
2023-04-10T07:46:22.546Z,9.60
2023-04-10T07:48:51.428Z,9.20
2023-04-10T07:51:20.663Z,9.02
2023-04-10T07:53:49.597Z,7.20
2023-04-10T07:56:22.753Z,9.00
2023-04-10T07:58:53.057Z,8.88
2023-04-10T08:01:20.402Z,7.15
2023-04-10T08:03:47.742Z,8.80
2023-04-10T08:06:17.179Z,6.88
2023-04-10T08:08:45.939Z,7.07
2023-04-10T08:11:28.295Z,31.08
2023-04-10T08:14:02.046Z,14.32
2023-04-10T08:16:32.511Z,13.82
2023-04-10T08:18:59.493Z,15.67
2023-04-10T08:21:32.275Z,14.07
2023-04-10T08:24:00.869Z,15.55
2023-04-10T08:26:27.972Z,11.15
2023-04-10T08:28:56.663Z,13.90
2023-04-10T08:31:28.281Z,12.95
2023-04-10T08:33:58.494Z,15.20
2023-04-10T08:36:27.972Z,10.20
2023-04-10T08:38:56.927Z,10.65
2023-04-10T08:41:32.670Z,9.85
2023-04-10T08:43:59.406Z,12.30
2023-04-10T08:46:28.955Z,10.77
2023-04-10T08:49:05.609Z,9.63
2023-04-10T08:51:56.673Z,10.27
2023-04-10T08:54:32.764Z,12.32
2023-04-10T08:57:04.101Z,8.68
2023-04-10T08:59:31.450Z,12.18
2023-04-10T09:02:02.748Z,7.97
2023-04-10T09:04:34.802Z,10.00
2023-04-10T09:07:01.479Z,10.10
2023-04-10T09:09:32.384Z,10.90
2023-04-10T09:12:04.237Z,13.20
2023-04-10T09:14:32.167Z,11.13
2023-04-10T09:17:34.509Z,8.48
2023-04-10T09:20:01.425Z,10.13
2023-04-10T09:22:32.191Z,7.97
2023-04-10T09:25:02.381Z,10.80
2023-04-10T09:27:40.116Z,12.18
2023-04-10T09:30:08.394Z,11.10
2023-04-10T09:32:42.811Z,10.80
2023-04-10T09:35:10.953Z,10.20
2023-04-10T09:37:40.936Z,9.48
2023-04-10T09:40:26.213Z,8.70
2023-04-10T09:42:53.413Z,11.10
2023-04-10T09:45:20.893Z,8.48
2023-04-10T09:48:17.293Z,8.45
2023-04-10T09:50:44.102Z,7.63
2023-04-10T09:53:17.082Z,7.70
2023-04-10T09:55:43.932Z,7.38
2023-04-10T09:58:13.104Z,8.40
2023-04-10T10:00:43.421Z,9.68
2023-04-10T10:03:17.225Z,7.50
2023-04-10T10:05:45.493Z,7.10
2023-04-10T10:08:15.800Z,8.52
2023-04-10T10:10:51.114Z,6.38
2023-04-10T10:13:28.242Z,9.32
2023-04-10T10:16:02.030Z,8.13
2023-04-10T10:18:53.684Z,8.65
2023-04-10T10:21:23.930Z,9.50
2023-04-10T10:23:54.069Z,7.22
2023-04-10T10:26:23.791Z,7.50
2023-04-10T10:28:53.790Z,6.55
2023-04-10T10:31:24.410Z,8.45
2023-04-10T10:33:58.994Z,6.97
2023-04-10T10:36:25.939Z,7.43
2023-04-10T10:39:21.646Z,8.65
2023-04-10T10:42:03.797Z,8.00
2023-04-10T10:44:39.967Z,6.32
2023-04-10T10:47:09.688Z,9.00
2023-04-10T10:49:54.514Z,7.28
2023-04-10T10:53:01.385Z,8.13
2023-04-10T10:55:39.814Z,6.25
2023-04-10T10:58:07.400Z,7.35
2023-04-10T11:00:52.520Z,6.32
2023-04-10T11:03:19.372Z,6.68
2023-04-10T11:05:55.588Z,6.47
2023-04-10T11:08:35.362Z,7.93
2023-04-10T11:11:08.036Z,6.97
2023-04-10T11:13:41.478Z,6.63
2023-04-10T11:16:12.415Z,6.88
2023-04-10T11:18:56.218Z,6.85
2023-04-10T11:21:31.387Z,6.72
2023-04-10T11:23:58.011Z,6.65
2023-04-10T11:26:33.693Z,11.90
2023-04-10T11:29:03.410Z,6.07
2023-04-10T11:31:30.367Z,5.53
2023-04-10T11:33:57.631Z,8.38
2023-04-10T11:36:24.313Z,5.28
2023-04-10T11:38:58.327Z,6.82
2023-04-10T11:41:37.338Z,6.78
2023-04-10T11:44:06.223Z,5.78
2023-04-10T11:46:41.233Z,6.47
2023-04-10T11:49:11.704Z,5.32
2023-04-10T11:51:39.107Z,6.00
2023-04-10T11:54:14.431Z,6.93
2023-04-10T11:56:42.105Z,6.55
2023-04-10T11:59:13.614Z,5.70
2023-04-10T12:01:43.017Z,6.65
2023-04-10T12:04:21.171Z,5.28
2023-04-10T12:06:51.850Z,7.72
2023-04-10T12:09:21.612Z,6.13
2023-04-10T12:12:04.289Z,6.43
2023-04-10T12:14:32.505Z,5.95
2023-04-10T12:16:59.873Z,6.05
2023-04-10T12:19:26.718Z,9.52
2023-04-10T12:21:53.375Z,5.60
2023-04-10T12:24:46.451Z,6.63
2023-04-10T12:27:21.967Z,5.88
2023-04-10T12:29:52.499Z,5.65
2023-04-10T12:32:19.716Z,5.87
2023-04-10T12:35:01.432Z,5.50
2023-04-10T12:37:50.698Z,5.00
2023-04-10T12:40:20.619Z,7.38
2023-04-10T12:42:49.481Z,5.13
2023-04-10T12:45:16.502Z,7.80
2023-04-10T12:47:47.445Z,5.35
2023-04-10T12:50:17.389Z,6.00
2023-04-10T12:52:46.634Z,5.68
2023-04-10T12:55:14.277Z,5.53
2023-04-10T12:57:41.678Z,5.13
2023-04-10T13:00:09.921Z,4.82
2023-04-10T13:02:37.978Z,6.57
2023-04-10T13:05:08.681Z,5.10
2023-04-10T13:07:36.538Z,5.27
2023-04-10T13:10:06.433Z,4.90
2023-04-10T13:12:36.432Z,5.75
2023-04-10T13:15:07.532Z,5.10
2023-04-10T13:17:37.108Z,5.20
2023-04-10T13:20:06.629Z,5.53
2023-04-10T13:22:33.279Z,5.47
2023-04-10T13:25:03.815Z,4.93
2023-04-10T13:27:30.738Z,6.18
2023-04-10T13:29:57.366Z,5.10
2023-04-10T13:32:24.344Z,4.60
2023-04-10T13:34:51.016Z,5.03
2023-04-10T13:37:17.646Z,5.65
2023-04-10T13:39:44.383Z,6.63
2023-04-10T13:42:11.301Z,7.38
2023-04-10T13:44:38.077Z,4.80
2023-04-10T13:47:04.708Z,8.75
2023-04-10T13:49:31.413Z,4.70
2023-04-10T13:52:01.327Z,6.57
2023-04-10T13:54:28.660Z,6.18
2023-04-10T13:56:59.222Z,5.18
2023-04-10T13:59:28.489Z,5.43
2023-04-10T14:01:55.417Z,6.25
2023-04-10T14:04:24.394Z,5.65
2023-04-10T14:06:53.184Z,4.70
2023-04-10T14:09:24.531Z,5.20
2023-04-10T14:11:54.913Z,5.05
2023-04-10T14:14:24.007Z,5.67
2023-04-10T14:16:52.937Z,5.50
2023-04-10T14:19:19.624Z,4.20
2023-04-10T14:21:46.353Z,5.47
2023-04-10T14:24:13.039Z,5.47
2023-04-10T14:26:39.682Z,5.22
2023-04-10T14:29:08.719Z,4.60
2023-04-10T14:31:47.155Z,6.30
2023-04-10T14:34:23.989Z,7.45
2023-04-10T14:36:55.749Z,5.30
2023-04-10T14:39:27.668Z,7.50
2023-04-10T14:41:57.169Z,8.57
2023-04-10T14:44:23.910Z,5.18
2023-04-10T14:46:55.240Z,5.13
2023-04-10T14:49:24.360Z,5.88
2023-04-10T14:51:53.452Z,5.68
2023-04-10T14:54:22.069Z,5.30
2023-04-10T14:56:49.268Z,5.63
2023-04-10T14:59:18.987Z,6.38
2023-04-10T15:01:45.900Z,8.25
2023-04-10T15:04:12.923Z,5.72
2023-04-10T15:06:44.366Z,5.35
2023-04-10T15:09:11.229Z,6.55
2023-04-10T15:11:40.676Z,5.30
2023-04-10T15:14:12.000Z,5.38
2023-04-10T15:16:38.690Z,6.68
2023-04-10T15:19:05.475Z,5.85
2023-04-10T15:21:32.228Z,5.40
2023-04-10T15:24:01.074Z,4.82
2023-04-10T15:26:27.790Z,6.38
2023-04-10T15:28:54.442Z,6.97
2023-04-10T15:31:26.678Z,6.07
2023-04-10T15:33:53.634Z,5.35
2023-04-10T15:36:20.671Z,5.60
2023-04-10T15:38:49.877Z,5.32
2023-04-10T15:41:19.276Z,5.20
2023-04-10T15:43:45.954Z,5.68
2023-04-10T15:46:14.793Z,5.57
2023-04-10T15:48:41.484Z,5.53
2023-04-10T15:51:08.250Z,5.18
2023-04-10T15:53:35.028Z,5.30
2023-04-10T15:56:07.352Z,5.55
2023-04-10T15:58:34.112Z,5.57
2023-04-10T16:01:00.957Z,5.25
2023-04-10T16:03:30.643Z,4.97
2023-04-10T16:05:58.319Z,5.40
2023-04-10T16:08:30.239Z,5.07
2023-04-10T16:10:58.252Z,5.13
2023-04-10T16:13:25.009Z,4.95
2023-04-10T16:15:54.531Z,4.90
2023-04-10T16:18:23.870Z,5.43
2023-04-10T16:20:52.645Z,5.00
2023-04-10T16:23:19.228Z,5.15
2023-04-10T16:25:48.090Z,5.53
2023-04-10T16:28:17.020Z,5.22
2023-04-10T16:30:46.405Z,5.43
2023-04-10T16:33:13.111Z,5.63
2023-04-10T16:35:39.927Z,5.38
2023-04-10T16:38:06.625Z,6.22
2023-04-10T16:40:33.294Z,5.18
2023-04-10T16:43:01.084Z,5.40
2023-04-10T16:45:27.905Z,5.45
2023-04-10T16:47:56.836Z,9.35
2023-04-10T16:50:23.650Z,5.57
2023-04-10T16:52:50.544Z,5.80
2023-04-10T16:55:22.866Z,7.32
2023-04-10T16:57:51.666Z,5.15
2023-04-10T17:00:18.652Z,5.13
2023-04-10T17:02:47.501Z,6.03
2023-04-10T17:05:16.364Z,5.80
2023-04-10T17:07:45.338Z,6.70
2023-04-10T17:10:12.068Z,6.38
2023-04-10T17:12:42.495Z,5.22
2023-04-10T17:15:12.425Z,5.80
2023-04-10T17:17:41.335Z,6.85
2023-04-10T17:20:09.856Z,6.05
2023-04-10T17:22:38.800Z,6.32
2023-04-10T17:25:08.649Z,6.00
2023-04-10T17:27:40.745Z,5.80
2023-04-10T17:30:15.726Z,6.45
2023-04-10T17:32:47.163Z,6.22
2023-04-10T17:35:17.023Z,6.60
2023-04-10T17:37:46.210Z,6.63
2023-04-10T17:40:13.083Z,7.90
2023-04-10T17:42:44.655Z,9.32
2023-04-10T17:45:11.960Z,9.27
2023-04-10T17:47:40.884Z,10.20
2023-04-10T17:50:08.544Z,11.02
2023-04-10T17:52:35.525Z,12.18
2023-04-10T17:55:04.976Z,12.57
2023-04-10T17:57:33.945Z,14.02
2023-04-10T18:00:09.849Z,14.73
2023-04-10T18:02:36.803Z,16.63
2023-04-10T18:05:07.173Z,18.15
2023-04-10T18:07:34.359Z,19.83
2023-04-10T18:10:03.300Z,21.67
2023-04-10T18:12:32.231Z,22.67
2023-04-10T18:15:01.041Z,24.15
2023-04-10T18:17:30.273Z,25.15
2023-04-10T18:19:57.596Z,27.80
2023-04-10T18:22:24.481Z,27.77
2023-04-10T18:24:56.449Z,29.30
2023-04-10T18:27:23.249Z,32.40
2023-04-10T18:29:52.675Z,35.05
2023-04-10T18:32:22.317Z,36.25
2023-04-10T18:34:50.332Z,33.65
2023-04-10T18:37:19.414Z,35.83
2023-04-10T18:39:46.051Z,33.75
2023-04-10T18:42:15.614Z,34.95
2023-04-10T18:44:49.509Z,33.78
2023-04-10T18:47:16.283Z,30.15
2023-04-10T18:49:42.981Z,33.78
2023-04-10T18:52:09.735Z,30.42
2023-04-10T18:54:38.481Z,31.38
2023-04-10T18:57:07.307Z,28.10
2023-04-10T18:59:34.017Z,28.60
2023-04-10T19:02:03.221Z,27.52
2023-04-10T19:04:34.888Z,28.75
2023-04-10T19:07:03.843Z,26.95
2023-04-10T19:09:30.679Z,32.63
2023-04-10T19:11:59.962Z,32.47
2023-04-10T19:14:28.798Z,36.33
2023-04-10T19:16:57.662Z,39.78
2023-04-10T19:19:27.374Z,44.22
2023-04-10T19:21:56.399Z,44.22
2023-04-10T19:24:30.686Z,43.92
2023-04-10T19:26:59.491Z,46.38
2023-04-10T19:29:26.269Z,46.35
2023-04-10T19:31:52.863Z,50.00
2023-04-10T19:34:19.509Z,53.05
2023-04-10T19:36:48.273Z,54.42
2023-04-10T19:39:15.175Z,58.70
2023-04-10T19:41:44.070Z,60.08
2023-04-10T19:44:13.519Z,62.50
2023-04-10T19:46:40.147Z,65.57
2023-04-10T19:49:11.618Z,61.08
2023-04-10T19:51:38.241Z,61.35
2023-04-10T19:54:05.035Z,61.55
2023-04-10T19:56:31.769Z,59.92
2023-04-10T19:59:01.037Z,58.47
2023-04-10T20:01:30.541Z,57.95
2023-04-10T20:03:57.858Z,58.25
2023-04-10T20:06:26.809Z,56.08
2023-04-10T20:08:55.935Z,54.67
2023-04-10T20:11:30.580Z,55.90
2023-04-10T20:14:02.197Z,53.53
2023-04-10T20:16:28.892Z,52.90
2023-04-10T20:18:57.761Z,50.58
2023-04-10T20:21:27.655Z,51.08
2023-04-10T20:23:54.206Z,49.33
2023-04-10T20:26:25.686Z,51.30
2023-04-10T20:28:53.279Z,51.20
2023-04-10T20:31:19.988Z,47.35
2023-04-10T20:33:48.952Z,48.47
2023-04-10T20:36:17.824Z,48.28
2023-04-10T20:38:46.822Z,47.17
2023-04-10T20:41:15.612Z,48.90
2023-04-10T20:43:42.219Z,46.47
2023-04-10T20:46:09.158Z,46.88
2023-04-10T20:48:38.015Z,45.15
2023-04-10T20:51:05.491Z,43.08
2023-04-10T20:53:36.899Z,43.05
2023-04-10T20:56:06.024Z,42.78
2023-04-10T20:58:33.482Z,42.35
2023-04-10T21:01:02.453Z,43.17
2023-04-10T21:03:31.840Z,42.20
2023-04-10T21:06:03.173Z,40.90
2023-04-10T21:08:34.562Z,40.40
2023-04-10T21:11:02.453Z,39.83
2023-04-10T21:13:31.208Z,37.55
2023-04-10T21:16:00.061Z,40.85
2023-04-10T21:18:26.773Z,40.47
2023-04-10T21:20:56.521Z,49.08
2023-04-10T21:23:27.794Z,46.53
2023-04-10T21:25:54.956Z,36.80
2023-04-10T21:28:24.347Z,36.97
2023-04-10T21:30:51.001Z,37.83
2023-04-10T21:33:17.642Z,38.50
2023-04-10T21:35:44.890Z,34.97
2023-04-10T21:38:14.755Z,35.60
2023-04-10T21:40:52.119Z,35.00
2023-04-10T21:43:22.534Z,35.65
2023-04-10T21:45:49.259Z,35.77
2023-04-10T21:48:16.169Z,32.92
2023-04-10T21:50:42.885Z,34.25
2023-04-10T21:53:12.053Z,34.55
2023-04-10T21:55:38.679Z,35.30
2023-04-10T21:58:05.321Z,34.10
2023-04-10T22:00:35.337Z,31.33
2023-04-10T22:03:04.525Z,30.65
2023-04-10T22:05:34.520Z,31.17
2023-04-10T22:08:01.364Z,31.67
2023-04-10T22:10:30.374Z,31.50
2023-04-10T22:12:59.221Z,29.00
2023-04-10T22:15:28.871Z,33.22
2023-04-10T22:18:01.048Z,34.88
2023-04-10T22:20:29.989Z,31.73
2023-04-10T22:22:58.952Z,32.03
2023-04-10T22:25:28.117Z,32.92
2023-04-10T22:27:56.901Z,32.08
2023-04-10T22:30:27.077Z,32.95
2023-04-10T22:32:57.004Z,32.40
2023-04-10T22:35:23.859Z,36.38
2023-04-10T22:37:56.867Z,33.90
2023-04-10T22:40:25.769Z,34.85
2023-04-10T22:42:52.408Z,34.83
2023-04-10T22:45:19.161Z,33.17
2023-04-10T22:47:45.776Z,33.67
2023-04-10T22:50:15.470Z,33.78
2023-04-10T22:52:42.080Z,34.65
2023-04-10T22:55:08.889Z,32.50
2023-04-10T22:57:40.229Z,33.03
2023-04-10T23:00:07.686Z,35.42
2023-04-10T23:02:37.015Z,32.05
2023-04-10T23:05:09.013Z,33.22
2023-04-10T23:07:37.846Z,31.67
2023-04-10T23:10:07.178Z,31.30
2023-04-10T23:12:33.863Z,30.02
2023-04-10T23:15:02.691Z,30.02
2023-04-10T23:17:29.442Z,31.05
2023-04-10T23:19:58.811Z,29.98
2023-04-10T23:22:30.157Z,29.33
2023-04-10T23:25:01.641Z,30.23
2023-04-10T23:27:28.303Z,30.10
2023-04-10T23:29:55.026Z,29.00
2023-04-10T23:32:21.688Z,29.23
2023-04-10T23:34:52.969Z,30.13
2023-04-10T23:37:19.612Z,28.90
2023-04-10T23:39:50.942Z,27.83
2023-04-10T23:42:17.556Z,29.05
2023-04-10T23:44:44.219Z,27.95
2023-04-10T23:47:12.970Z,28.38
2023-04-10T23:49:42.156Z,27.42
2023-04-10T23:52:10.022Z,26.65
2023-04-10T23:54:36.659Z,29.02
2023-04-10T23:57:03.348Z,26.38
2023-04-10T23:59:32.214Z,28.67
